Flight Track Log - Related Links

Times and Time Zones

All times are in EST time to prevent confusion due to time zone crossing. See the SKW5631 flight status page for this flight to view local times or setup timezone preferences in your user account.

Time Position Orientation Groundspeed Altitude Reporting Facility
EST Latitude Longitude Course Direction KTS MPH feet Rate Location/Type
Wed 11:24:42 PM 37.6811 -122.3847 138° Southeast 241 277 2,900  Level Oakland Center
Wed 11:25:43 PM 37.6969 -122.4597 285° West 236 272 5,500 2,754 Climbing Oakland Center
Wed 11:26:44 PM 37.6442 -122.5267 225° Southwest 263 303 8,500 2,705 Climbing Oakland Center
Wed 11:27:45 PM 37.5711 -122.5153 173° South 287 330 11,000 2,262 Climbing Oakland Center
Wed 11:28:46 PM 37.4914 -122.4308 140° Southeast 317 365 13,100 1,967 Climbing Oakland Center
Wed 11:29:00 PM 37.2137 -121.8715 138° Southeast  Level Estimated
Wed 11:29:47 PM 37.4208 -122.3508 138° Southeast 338 389 15,000  Level Oakland Center
Wed 11:30:49 PM 37.3461 -122.2697 139° Southeast 353 406 16,600 1,415 Climbing Oakland Center
Wed 11:31:50 PM 37.2711 -122.1858 138° Southeast 360 414 17,900 1,328 Climbing Oakland Center
Wed 11:32:51 PM 37.1933 -122.1011 139° Southeast 370 426 19,300 1,328 Climbing Oakland Center
Wed 11:33:52 PM 37.1147 -122.0142 139° Southeast 376 433 20,600 1,180 Climbing Oakland Center
Wed 11:34:53 PM 37.0336 -121.9267 139° Southeast 383 441 21,700 1,180 Climbing Oakland Center
Wed 11:35:54 PM 36.9525 -121.8372 139° Southeast 389 448 23,000 1,082 Climbing Oakland Center
Wed 11:36:55 PM 36.8697 -121.7472 139° Southeast 395 455 23,900 1,033 Climbing Oakland Center
Wed 11:37:56 PM 36.7717 -121.6428 140° Southeast 402 463 25,100 1,131 Climbing Oakland Center
Wed 11:38:57 PM 36.6869 -121.5511 139° Southeast 405 466 26,200 885 Climbing Oakland Center
Wed 11:39:58 PM 36.6019 -121.4589 139° Southeast 405 466 26,900 590 Climbing Oakland Center
Wed 11:40:59 PM 36.5142 -121.3653 139° Southeast 414 476 27,400 488 Climbing Oakland Center
Wed 11:42:01 PM 36.4261 -121.2672 138° Southeast 423 487 27,900 488 Climbing Oakland Center
Wed 11:43:02 PM 36.3356 -121.1708 139° Southeast 429 494 28,400 492 Climbing Oakland Center
Wed 11:44:03 PM 36.2439 -121.0736 139° Southeast 434 499 28,900 492 Climbing Oakland Center
Wed 11:45:04 PM 36.1522 -120.9753 139° Southeast 435 501 29,400 492 Climbing Oakland Center
Wed 11:46:05 PM 36.0614 -120.8778 139° Southeast 434 499 29,900 492 Climbing Oakland Center
Wed 11:47:06 PM 35.9703 -120.7808 139° Southeast 433 498 30,400 541 Climbing Oakland Center
Wed 11:48:07 PM 35.8608 -120.6658 140° Southeast 431 496 31,000 295 Climbing Oakland Center
Wed 11:49:08 PM 35.7694 -120.5692 139° Southeast 433 498 31,000  Level Oakland Center
Wed 11:50:09 PM 35.6772 -120.4725 140° Southeast 435 501 31,000  Level Oakland Center
Wed 11:51:10 PM 35.5858 -120.3767 140° Southeast 432 497 31,000 -733 Level Oakland Center
Wed 11:52:20 PM 35.4825 -120.2697 140° Southeast 427 491 29,400 -1,466 Descending Los Angeles Center
Wed 11:53:21 PM 35.3950 -120.1767 139° Southeast 418 481 27,800 -1,415 Descending Los Angeles Center
Wed 11:54:23 PM 35.3150 -120.0925 139° Southeast 414 476 26,500 -1,610 Descending Los Angeles Center
Wed 11:55:24 PM 35.2100 -119.9856 140° Southeast 407 468 24,500 -1,951 Descending Los Angeles Center
Wed 11:56:26 PM 35.1300 -119.9028 140° Southeast 380 437 22,500 -1,951 Descending Los Angeles Center
Wed 11:57:27 PM 35.0572 -119.8178 136° Southeast 364 419 20,500 -1,951 Descending Los Angeles Center
Wed 11:58:29 PM 34.9936 -119.7292 131° Southeast 351 404 18,500 -1,659 Descending Los Angeles Center
Wed 11:59:30 PM 34.9303 -119.6447 132° Southeast 339 390 17,100 -1,328 Descending Los Angeles Center
Thu 12:00:31 AM 34.8675 -119.5603 132° Southeast 336 387 15,800 -1,220 Descending Los Angeles Center
Thu 12:01:33 AM 34.8053 -119.4758 132° Southeast 337 388 14,600 -1,171 Descending Los Angeles Center
Thu 12:02:34 AM 34.7436 -119.3925 132° Southeast 332 382 13,400 -1,171 Descending Los Angeles Center
Thu 12:03:36 AM 34.6722 -119.2972 132° Southeast 319 367 12,200 -1,024 Descending Los Angeles Center
Thu 12:04:37 AM 34.6158 -119.2231 133° Southeast 309 356 11,300 -590 Descending Los Angeles Center
Thu 12:05:38 AM 34.5581 -119.1503 134° Southeast 301 346 11,000 -146 Descending Los Angeles Center
Thu 12:06:40 AM 34.5039 -119.0758 131° Southeast 296 341 11,000  Level Los Angeles Center
Thu 12:07:41 AM 34.4519 -119.0069 132° Southeast 278 320 11,000  Level Los Angeles Center
Thu 12:08:42 AM 34.3989 -118.9356 132° Southeast 285 328 11,000 -585 Level Los Angeles Center
Thu 12:09:44 AM 34.3453 -118.8728 136° Southeast 267 307 9,800 -1,951 Descending Los Angeles Center
Thu 12:10:45 AM 34.2778 -118.8294 152° Southeast 273 314 7,000 -2,341 Descending Los Angeles Center
Thu 12:11:47 AM 34.2117 -118.7744 145° Southeast 245 282 5,000 -1,366 Descending Los Angeles Center
Thu 12:12:48 AM 34.2047 -118.7011 97° East 231 266 4,200 -492 Descending Los Angeles Center
Thu 12:13:49 AM 34.2061 -118.6272 89° East 225 259 4,000 -125 Descending Los Angeles Center
Thu 12:14:24 AM 34.2000 -118.5833 100° East 220 253 4,000 -442 Level Southern California TRACON
Thu 12:15:24 AM 34.2000 -118.5167 90° East 192 221 3,300 -905 Descending Southern California TRACON
Thu 12:16:30 AM 34.2000 -118.4500 90° East 149 171 2,100 -905 Descending Southern California TRACON
Thu 12:17:30 AM 34.2000 -118.4167 90° East 142 163 1,400 -452 Descending Southern California TRACON
Thu 12:18:56 AM 34.1989 -118.3481 91° East 154 177 1,000 -279 Descending Los Angeles Center

Login

Don't have an account? Register now (free) for customized features, flight alerts, and more!